Aérodrome :
LOGIN :

S'inscrire | Disclaimer

   EN    FR    IT 

 










Légende :    VFR   VFR Marginal   IFR   IFR Intensif   IFR Très Intensif
Visi : 
Plafond : 
>= 8 km
>= 3000ft
5 à 8 km
1000 à 3000 ft
1500m à 5 km
500 à 1000 ft
800 à 1500m
200 à 500 ft
< 800m
< 200 ft
Symboles :   Orages  Brouillard  Fortes neiges  Fortes précipitations  Vent > 20 kt
SIGMETs :   Divers  Orages  Givrage  Turbulence  Onde Orograph.  Cendres Volcan.






- Altitude de l'aérodrome : 265 ft
- Code IATA : BJY


LYBT - Batajnica Air Base

DERNIER METAR :
  • 281000Z 28018KT 9999 FEW025 SCT040 05/01 Q1009 BECMG 32035KT

METARs EXPIRÉS :
  • 280930Z 24012KT 9999 SCT025 07/04 Q1008 BECMG 31015G25KT
  • 280900Z 22010KT CAVOK 06/05 Q1007 BECMG 31015G25KT
  • 280830Z 20008KT 9999 SCT040 05/05 Q1007 BECMG 31015G25KT
  • 280800Z 18007KT 9999 SCT033 05/04 Q1006 BECMG FM 0930 31015G25KT
  • 280730Z 18007KT 9999 -RA BKN033 04/04 Q1006 NOSIG

TAF TAF LYBT
Valide du 28 à 06h jusqu'au 29 à 06h UTC


280500Z 2806/2906 14008KT 9999 SCT012 BKN033 TX06/2813Z TNM03/2905Z
BECMG 2808/2810 30020KT
PROB40
TEMPO 2812/2816 3000 SHSN SCT010 SCT027TCU BKN033
BECMG 2819/2821 30008KT
TEMPO 2903/2906 3000 BR



MET'MAP, la Météo Aéronautique d'un coup d'oeil ! - Copyright ORBIFLY Décembre 2007 - Disclaimer

ORBIFLY MET'MAP TEAM :

Programmation & Développement : Alexandra Zaïnal
Sur une idée originale de : Baudouin d'Aumeries
Assistance à la programmation : Marc-Olivier Méhu
Soutien technique & logistique : Manuel Goepfert

Contact : metmap@orbifly.com




SOURCES & CREDITS :

   NOAA